Time;durP1;ratioP1;P1;durP2;ratioP2;P2;SDS_P1;SDS_P2;PMS_P1;PMS_P2;Temp;Humidity;BMP_temperature;BMP_pressure;BME280_temperature;BME280_humidity;BME280_pressure;Samples;Min_cycle;Max_cycle;Signal;HPM_P1;HPM_P2
2021/12/24 00:01:23;;;;;;;15.98;9.98;;;;;;;7.13;72.48;98188.56;2618227;54;20295;-70
2021/12/24 00:03:53;;;;;;;15.10;10.38;;;;;;;7.12;72.27;98197.44;2618091;54;20029;-70
2021/12/24 00:06:23;;;;;;;16.85;10.88;;;;;;;7.13;72.52;98196.44;2618262;54;20069;-70
2021/12/24 00:08:55;;;;;;;13.20;10.68;;;;;;;7.12;72.38;98187.75;2618941;54;20030;-69
2021/12/24 00:11:27;;;;;;;15.45;10.25;;;;;;;7.10;72.54;98195.00;2619369;54;20030;-70
2021/12/24 00:13:59;;;;;;;15.10;10.88;;;;;;;7.09;72.68;98189.94;2619900;54;20034;-70
2021/12/24 00:16:36;;;;;;;14.27;10.40;;;;;;;7.13;72.62;98191.19;2620222;54;20066;-70
2021/12/24 00:19:15;;;;;;;15.55;10.38;;;;;;;7.16;72.21;98196.88;2621138;54;20030;-70
2021/12/24 00:35:28;;;;;;;18.25;10.18;;;;;;;7.18;72.53;98170.41;2618272;47;20026;-70
2021/12/24 00:38:01;;;;;;;12.23;9.65;;;;;;;7.17;72.84;98174.84;2618921;54;20030;-70
2021/12/24 00:40:31;;;;;;;16.15;10.40;;;;;;;7.17;72.81;98174.03;2618281;47;20066;-70
2021/12/24 00:43:04;;;;;;;15.88;10.18;;;;;;;7.17;72.91;98171.41;2618873;54;20026;-69
2021/12/24 00:45:36;;;;;;;16.83;10.88;;;;;;;7.16;72.91;98167.16;2618832;54;20042;-70
2021/12/24 00:48:08;;;;;;;12.52;10.10;;;;;;;7.18;72.81;98162.53;2618130;54;20101;-71
2021/12/24 00:50:50;;;;;;;15.50;10.25;;;;;;;7.19;73.14;98172.06;2618316;47;20022;-69
2021/12/24 00:56:03;;;;;;;14.43;10.27;;;;;;;7.19;73.30;98178.13;2618914;54;20026;-70
2021/12/24 00:58:37;;;;;;;13.07;9.90;;;;;;;7.24;73.18;98174.13;2619767;54;20041;-70
2021/12/24 01:01:07;;;;;;;12.77;9.67;;;;;;;7.26;72.90;98170.28;2620207;47;20042;-71
2021/12/24 01:03:37;;;;;;;13.18;9.95;;;;;;;7.30;72.63;98168.91;2620448;47;20027;-70
2021/12/24 01:06:07;;;;;;;15.82;9.85;;;;;;;7.30;73.17;98170.72;2620254;46;20038;-70
2021/12/24 01:08:37;;;;;;;14.38;10.32;;;;;;;7.33;72.92;98176.44;2620685;54;20050;-70
2021/12/24 01:11:10;;;;;;;12.52;9.38;;;;;;;7.33;72.75;98170.38;2620268;54;20126;-71
2021/12/24 01:13:42;;;;;;;13.13;9.52;;;;;;;7.36;73.00;98176.06;2620453;54;20161;-71
2021/12/24 01:16:21;;;;;;;10.60;9.05;;;;;;;7.39;73.06;98167.81;2618571;54;20027;-71
2021/12/24 01:18:59;;;;;;;14.75;10.52;;;;;;;7.39;73.16;98167.81;2618350;54;20018;-71
2021/12/24 01:21:44;;;;;;;12.73;8.98;;;;;;;7.41;73.02;98168.41;2618099;39;20423;-69
2021/12/24 01:24:19;;;;;;;14.02;9.40;;;;;;;7.43;73.02;98163.81;2617385;54;20538;-71
2021/12/24 01:26:58;;;;;;;13.05;9.50;;;;;;;7.46;72.74;98157.34;2617343;54;20034;-70
2021/12/24 01:29:46;;;;;;;13.23;9.55;;;;;;;7.50;72.92;98166.47;2617584;54;20083;-69
2021/12/24 01:40:27;;;;;;;11.73;9.20;;;;;;;7.52;73.72;98164.50;2618262;47;20030;-69
2021/12/24 01:42:55;;;;;;;10.93;9.23;;;;;;;7.55;73.98;98173.81;2617648;54;20026;-69
2021/12/24 01:45:29;;;;;;;13.88;9.70;;;;;;;7.60;74.62;98174.88;2617611;47;20035;-69
2021/12/24 01:48:02;;;;;;;17.65;9.50;;;;;;;7.60;74.68;98167.00;2618383;54;20146;-69
2021/12/24 01:50:34;;;;;;;15.70;9.93;;;;;;;7.58;75.33;98176.88;2618670;47;20034;-69
2021/12/24 01:53:05;;;;;;;14.18;9.20;;;;;;;7.57;75.02;98167.38;2618900;54;20057;-70
2021/12/24 01:55:37;;;;;;;13.57;9.60;;;;;;;7.54;75.58;98165.09;2618666;39;20445;-70
2021/12/24 01:58:07;;;;;;;14.32;9.48;;;;;;;7.57;76.26;98159.47;2617607;47;20042;-69
2021/12/24 02:00:42;;;;;;;14.85;10.02;;;;;;;7.56;76.42;98171.00;2618161;47;20035;-69
2021/12/24 02:03:14;;;;;;;13.48;9.68;;;;;;;7.54;76.64;98164.28;2618304;47;20019;-70
2021/12/24 02:05:45;;;;;;;15.85;10.45;;;;;;;7.55;76.79;98150.13;2618399;47;20034;-69
2021/12/24 02:08:16;;;;;;;15.50;9.80;;;;;;;7.53;77.16;98139.81;2618624;54;20042;-69
2021/12/24 02:10:51;;;;;;;15.10;10.57;;;;;;;7.46;77.28;98144.19;2618502;47;20031;-69
2021/12/24 02:13:23;;;;;;;13.95;10.73;;;;;;;7.47;77.93;98139.75;2618214;47;20030;-69
2021/12/24 02:16:14;;;;;;;17.80;10.55;;;;;;;7.41;77.90;98130.81;2618391;54;20029;-70
2021/12/24 02:29:44;;;;;;;15.40;10.73;;;;;;;7.32;78.79;98124.84;2618801;47;20034;-69
2021/12/24 02:32:14;;;;;;;15.80;11.35;;;;;;;7.33;78.76;98121.22;2620236;51;20133;-69
2021/12/24 02:34:44;;;;;;;14.48;12.02;;;;;;;7.34;79.11;98119.41;2624790;47;20041;-69
2021/12/24 02:37:17;;;;;;;14.98;11.18;;;;;;;7.35;79.00;98113.16;2625259;54;20033;-72
2021/12/24 02:39:47;;;;;;;14.77;11.30;;;;;;;7.34;78.99;98111.50;2624070;54;20150;-69
2021/12/24 02:42:19;;;;;;;15.07;11.63;;;;;;;7.35;78.89;98111.34;2621736;54;20038;-69
2021/12/24 02:44:51;;;;;;;17.05;11.45;;;;;;;7.37;79.26;98109.31;2622000;54;20022;-69
2021/12/24 02:47:43;;;;;;;16.17;12.00;;;;;;;7.40;78.73;98114.22;2622515;39;20529;-69
2021/12/24 02:55:40;;;;;;;15.25;11.15;;;;;;;7.42;78.77;98099.03;2619397;47;20023;-69
2021/12/24 02:58:09;;;;;;;16.65;12.48;;;;;;;7.41;78.79;98109.75;2618559;54;20030;-69
2021/12/24 03:00:39;;;;;;;21.15;12.82;;;;;;;7.43;79.19;98095.44;2618412;47;20035;-68
2021/12/24 03:03:09;;;;;;;17.15;12.30;;;;;;;7.43;79.17;98097.25;2617898;47;20034;-70
2021/12/24 03:05:39;;;;;;;15.73;12.95;;;;;;;7.45;79.21;98097.88;2618213;47;20046;-69
2021/12/24 03:08:11;;;;;;;17.60;12.32;;;;;;;7.44;79.24;98097.06;2618501;54;20039;-69
2021/12/24 03:10:42;;;;;;;18.38;12.27;;;;;;;7.49;78.96;98098.31;2618636;54;20038;-69
2021/12/24 03:13:12;;;;;;;16.95;12.10;;;;;;;7.45;79.38;98096.03;2618329;47;20034;-69
2021/12/24 03:15:42;;;;;;;18.55;12.13;;;;;;;7.47;79.34;98090.63;2618109;54;20584;-69
2021/12/24 03:18:12;;;;;;;17.65;12.63;;;;;;;7.48;79.42;98080.91;2618484;54;20546;-70
2021/12/24 03:20:42;;;;;;;16.38;12.43;;;;;;;7.44;79.14;98093.63;2618573;54;20030;-69
2021/12/24 03:23:32;;;;;;;23.40;13.23;;;;;;;7.47;79.23;98089.78;2618132;39;20434;-70
2021/12/24 03:26:02;;;;;;;18.40;13.07;;;;;;;7.47;79.76;98082.72;2619503;39;20430;-70
2021/12/24 03:28:31;;;;;;;21.38;12.85;;;;;;;7.47;79.61;98069.56;2617845;47;20035;-70
2021/12/24 03:31:02;;;;;;;19.17;13.32;;;;;;;7.48;79.52;98079.09;2618267;54;20026;-71
2021/12/24 03:33:33;;;;;;;16.58;12.43;;;;;;;7.51;79.50;98080.50;2617592;54;20030;-71
2021/12/24 03:36:03;;;;;;;17.52;12.68;;;;;;;7.45;79.25;98082.91;2617930;54;20022;-70
2021/12/24 03:38:36;;;;;;;19.60;12.85;;;;;;;7.45;79.32;98079.44;2617740;54;20027;-69
2021/12/24 03:41:07;;;;;;;18.13;13.10;;;;;;;7.45;79.23;98076.81;2617412;47;20052;-71
2021/12/24 03:43:36;;;;;;;17.52;12.57;;;;;;;7.50;79.16;98084.13;2617557;54;20039;-71
2021/12/24 03:46:09;;;;;;;20.25;13.48;;;;;;;7.48;79.42;98086.16;2617881;54;20041;-70
2021/12/24 03:48:48;;;;;;;16.90;13.00;;;;;;;7.51;79.37;98073.44;2618210;54;20015;-70
2021/12/24 03:51:32;;;;;;;17.25;13.23;;;;;;;7.52;79.19;98075.06;2617430;54;20085;-71
2021/12/24 03:56:48;;;;;;;24.20;13.18;;;;;;;7.43;79.30;98071.75;2616954;47;20433;-70
2021/12/24 03:59:37;;;;;;;21.67;13.90;;;;;;;7.41;79.49;98068.50;2618582;39;20418;-70
2021/12/24 04:02:26;;;;;;;20.17;13.38;;;;;;;7.40;79.50;98081.84;2619078;54;20545;-71
2021/12/24 04:05:05;;;;;;;20.35;13.93;;;;;;;7.42;79.38;98078.00;2619707;54;20034;-72
2021/12/24 04:07:53;;;;;;;20.13;14.00;;;;;;;7.42;79.60;98085.91;2619890;54;20058;-69
2021/12/24 04:10:41;;;;;;;22.80;14.18;;;;;;;7.44;79.38;98083.09;2618497;54;20034;-70
2021/12/24 04:13:32;;;;;;;20.13;13.70;;;;;;;7.44;79.30;98083.91;2617828;47;20038;-69
2021/12/24 04:16:02;;;;;;;20.55;14.18;;;;;;;7.43;79.22;98078.84;2619231;39;20428;-69
2021/12/24 04:18:44;;;;;;;19.98;14.73;;;;;;;7.45;79.30;98077.63;2617708;54;20045;-69
2021/12/24 04:26:42;;;;;;;23.13;12.90;;;;;;;7.53;79.26;98075.88;2617262;47;20051;-69
2021/12/24 04:29:12;;;;;;;17.47;13.00;;;;;;;7.44;79.25;98065.50;2617560;39;20442;-69
2021/12/24 04:31:46;;;;;;;19.45;14.43;;;;;;;7.49;79.22;98072.00;2616721;47;20027;-69
2021/12/24 04:34:49;;;;;;;21.05;14.45;;;;;;;7.43;79.38;98063.88;2617038;54;20053;-69
2021/12/24 04:51:09;;;;;;;19.20;13.93;;;;;;;7.53;79.02;98053.00;2615837;47;20083;-70
2021/12/24 05:02:04;;;;;;;20.70;13.52;;;;;;;7.47;79.26;98050.31;2616709;54;20107;-70
2021/12/24 05:04:46;;;;;;;23.27;14.18;;;;;;;7.48;79.16;98049.34;2616447;47;20597;-69
2021/12/24 05:07:35;;;;;;;20.92;14.07;;;;;;;7.49;79.42;98056.22;2616811;54;20034;-68
2021/12/24 05:10:07;;;;;;;20.20;13.70;;;;;;;7.53;79.46;98050.38;2621167;54;20062;-68
2021/12/24 05:12:37;;;;;;;23.08;14.13;;;;;;;7.52;79.25;98053.22;2621046;54;20041;-70
2021/12/24 05:15:11;;;;;;;22.50;14.38;;;;;;;7.53;79.43;98060.09;2621883;39;20433;-69
2021/12/24 05:18:12;;;;;;;22.10;14.60;;;;;;;7.54;79.24;98062.53;2618826;54;20153;-71
2021/12/24 05:23:50;;;;;;;19.98;13.50;;;;;;;7.57;79.05;98050.81;2619192;47;20030;-71
2021/12/24 05:26:21;;;;;;;22.08;13.52;;;;;;;7.57;79.30;98061.34;2619882;39;20438;-71
2021/12/24 05:28:50;;;;;;;17.55;13.18;;;;;;;7.55;79.17;98058.06;2618924;54;20550;-71
2021/12/24 05:31:24;;;;;;;19.27;13.35;;;;;;;7.52;78.92;98069.81;2619071;47;20039;-72
2021/12/24 05:33:54;;;;;;;21.23;13.48;;;;;;;7.52;79.03;98063.75;2620393;54;20557;-70
2021/12/24 05:36:24;;;;;;;21.85;13.77;;;;;;;7.48;79.14;98068.56;2619870;54;20045;-72
2021/12/24 05:38:55;;;;;;;19.95;14.27;;;;;;;7.45;78.75;98051.34;2619898;54;20038;-70
2021/12/24 05:41:26;;;;;;;19.60;13.15;;;;;;;7.44;79.05;98057.59;2619015;54;20071;-71
2021/12/24 05:43:56;;;;;;;20.10;13.05;;;;;;;7.47;79.12;98052.94;2619436;54;20534;-72
2021/12/24 05:46:41;;;;;;;20.98;13.10;;;;;;;7.50;78.76;98053.38;2619987;39;20426;-70
2021/12/24 05:49:18;;;;;;;22.45;13.38;;;;;;;7.45;78.95;98059.22;2618783;47;20034;-72
2021/12/24 05:52:11;;;;;;;20.13;13.13;;;;;;;7.50;78.79;98060.47;2618742;47;20057;-70
2021/12/24 05:54:46;;;;;;;20.13;13.20;;;;;;;7.47;78.97;98059.06;2619010;54;20582;-71
2021/12/24 05:57:21;;;;;;;20.50;12.65;;;;;;;7.44;79.05;98062.88;2619144;47;20078;-71
2021/12/24 05:59:51;;;;;;;19.65;12.93;;;;;;;7.43;79.38;98048.09;2621739;47;20051;-72
2021/12/24 06:02:23;;;;;;;17.17;12.48;;;;;;;7.45;79.49;98047.91;2629343;54;20042;-70
2021/12/24 06:04:53;;;;;;;18.50;13.35;;;;;;;7.42;79.00;98050.91;2628586;47;20034;-73
2021/12/24 06:07:23;;;;;;;17.58;12.65;;;;;;;7.43;79.13;98058.63;2620830;54;20034;-71
2021/12/24 06:09:52;;;;;;;19.52;12.88;;;;;;;7.41;79.18;98065.06;2619860;54;20027;-71
2021/12/24 06:12:22;;;;;;;18.60;13.63;;;;;;;7.40;79.06;98066.88;2620370;54;20022;-72
2021/12/24 06:14:54;;;;;;;19.23;12.93;;;;;;;7.42;79.35;98058.78;2620524;54;20019;-71
2021/12/24 06:17:26;;;;;;;21.55;13.40;;;;;;;7.46;79.44;98065.28;2619413;54;20545;-72
2021/12/24 06:19:56;;;;;;;18.55;13.32;;;;;;;7.46;78.98;98067.91;2619646;54;20019;-71
2021/12/24 06:22:26;;;;;;;19.73;13.43;;;;;;;7.44;78.89;98073.38;2619249;54;20041;-72
2021/12/24 06:24:55;;;;;;;19.20;12.75;;;;;;;7.40;79.27;98068.69;2620666;39;20407;-71
2021/12/24 06:27:25;;;;;;;20.10;11.98;;;;;;;7.42;79.26;98058.78;2620726;39;20488;-70
2021/12/24 06:29:55;;;;;;;21.65;13.52;;;;;;;7.45;79.20;98061.03;2620584;54;20534;-71
2021/12/24 06:32:30;;;;;;;19.37;12.17;;;;;;;7.40;79.11;98066.06;2619942;54;20546;-72
2021/12/24 06:35:00;;;;;;;20.45;12.18;;;;;;;7.42;79.02;98074.56;2620825;54;20038;-72
2021/12/24 06:37:30;;;;;;;20.02;12.85;;;;;;;7.39;79.00;98074.97;2619675;47;20042;-71
2021/12/24 06:40:00;;;;;;;18.10;12.30;;;;;;;7.37;79.21;98077.78;2621012;54;20038;-71
2021/12/24 06:42:29;;;;;;;15.90;12.13;;;;;;;7.39;79.21;98070.53;2620079;47;20549;-70
2021/12/24 06:45:01;;;;;;;16.48;12.25;;;;;;;7.39;78.90;98062.63;2621017;54;20631;-72
2021/12/24 06:47:33;;;;;;;19.75;13.32;;;;;;;7.44;79.06;98052.34;2620008;54;20034;-72
2021/12/24 06:50:03;;;;;;;21.10;12.70;;;;;;;7.44;79.09;98059.44;2620766;39;20451;-71
2021/12/24 06:52:33;;;;;;;19.00;12.27;;;;;;;7.40;78.82;98055.56;2619363;54;20556;-72
2021/12/24 06:55:03;;;;;;;23.73;13.55;;;;;;;7.38;79.25;98062.81;2620605;54;20565;-71
2021/12/24 06:57:39;;;;;;;19.55;11.80;;;;;;;7.35;79.36;98058.75;2619581;54;20047;-72
2021/12/24 07:00:14;;;;;;;19.10;12.75;;;;;;;7.38;79.26;98053.09;2619539;47;20030;-71
2021/12/24 07:02:48;;;;;;;22.70;13.90;;;;;;;7.44;79.29;98047.09;2618298;54;20026;-70
2021/12/24 07:05:20;;;;;;;24.85;12.75;;;;;;;7.45;79.33;98056.59;2619516;54;20030;-71
2021/12/24 07:07:50;;;;;;;22.15;13.45;;;;;;;7.45;79.27;98048.72;2625594;54;20026;-71
2021/12/24 07:10:19;;;;;;;22.63;13.23;;;;;;;7.46;79.52;98046.88;2626336;54;20046;-71
2021/12/24 07:12:49;;;;;;;22.38;13.48;;;;;;;7.43;79.30;98063.88;2626584;54;20045;-72
2021/12/24 07:15:19;;;;;;;20.02;13.77;;;;;;;7.35;79.76;98064.00;2626011;50;20121;-71
2021/12/24 07:17:51;;;;;;;21.27;13.73;;;;;;;7.35;79.90;98073.72;2626414;54;20034;-72
2021/12/24 07:20:23;;;;;;;19.13;13.13;;;;;;;7.37;79.73;98062.00;2627390;54;20035;-71
2021/12/24 07:22:52;;;;;;;23.17;13.27;;;;;;;7.41;80.04;98071.13;2626328;54;20070;-70
2021/12/24 07:25:22;;;;;;;23.48;14.20;;;;;;;7.42;79.92;98064.06;2626774;54;20022;-71
2021/12/24 07:27:52;;;;;;;26.90;13.85;;;;;;;7.39;79.75;98048.69;2627171;54;20576;-72
2021/12/24 07:30:22;;;;;;;21.90;14.15;;;;;;;7.35;79.95;98048.25;2621729;54;20038;-71
2021/12/24 07:32:54;;;;;;;23.13;14.00;;;;;;;7.38;79.74;98052.28;2621481;47;20038;-71
2021/12/24 07:35:24;;;;;;;20.52;13.35;;;;;;;7.40;79.89;98056.34;2619404;54;20042;-72
2021/12/24 07:37:54;;;;;;;22.02;13.45;;;;;;;7.40;80.12;98059.00;2620033;54;20038;-72
2021/12/24 07:40:25;;;;;;;18.75;13.25;;;;;;;7.40;79.91;98051.09;2620054;54;20030;-72
2021/12/24 07:42:55;;;;;;;21.25;13.10;;;;;;;7.36;79.94;98062.19;2619533;54;20030;-71
2021/12/24 07:45:25;;;;;;;23.55;14.02;;;;;;;7.34;79.99;98046.59;2619600;54;20033;-71
2021/12/24 07:48:07;;;;;;;21.63;13.77;;;;;;;7.37;80.22;98040.97;2619261;54;20022;-71
2021/12/24 07:53:19;;;;;;;26.45;14.25;;;;;;;7.31;80.46;98054.88;2619656;47;20026;-71
2021/12/24 07:55:49;;;;;;;26.92;13.80;;;;;;;7.34;80.56;98059.72;2620153;39;20475;-72
2021/12/24 07:58:19;;;;;;;19.63;12.63;;;;;;;7.32;80.37;98061.75;2620229;54;20038;-70
2021/12/24 08:00:51;;;;;;;20.60;13.85;;;;;;;7.35;80.38;98065.84;2619261;54;20561;-71
2021/12/24 08:03:28;;;;;;;20.60;14.45;;;;;;;7.34;80.24;98054.47;2619044;54;20058;-71
2021/12/24 08:05:57;;;;;;;18.75;13.57;;;;;;;7.32;80.31;98060.94;2619328;54;20023;-71
2021/12/24 08:08:27;;;;;;;19.70;13.48;;;;;;;7.33;80.75;98067.81;2621329;47;20042;-71
2021/12/24 08:10:56;;;;;;;21.75;13.75;;;;;;;7.32;80.60;98053.88;2619845;54;20042;-71
2021/12/24 08:13:26;;;;;;;20.10;13.63;;;;;;;7.34;80.41;98061.56;2619798;54;20097;-71
2021/12/24 08:15:56;;;;;;;21.98;13.50;;;;;;;7.36;80.72;98059.56;2620056;54;20027;-70
2021/12/24 08:18:28;;;;;;;22.30;13.75;;;;;;;7.39;80.44;98067.88;2620327;39;20407;-70
2021/12/24 08:20:58;;;;;;;22.13;14.02;;;;;;;7.36;80.56;98055.13;2619680;54;20030;-71
2021/12/24 08:23:27;;;;;;;19.92;13.40;;;;;;;7.35;81.02;98066.66;2619490;54;20041;-71
2021/12/24 08:25:58;;;;;;;16.38;12.07;;;;;;;7.40;80.74;98059.00;2619158;54;20069;-70
2021/12/24 08:28:29;;;;;;;20.52;13.68;;;;;;;7.49;80.47;98066.75;2619036;54;20557;-71
2021/12/24 08:30:59;;;;;;;21.52;13.13;;;;;;;7.42;80.85;98064.84;2617867;54;20030;-70
2021/12/24 08:33:33;;;;;;;16.88;12.93;;;;;;;7.49;80.83;98053.59;2619143;54;20118;-71
2021/12/24 08:36:03;;;;;;;;;;;;;;;7.52;80.09;98061.91;2621203;54;20550;-71
2021/12/24 08:38:33;;;;;;;15.95;12.43;;;;;;;7.45;80.39;98056.59;2621578;54;20501;-71
2021/12/24 08:41:03;;;;;;;18.08;13.82;;;;;;;7.44;80.57;98049.72;2620838;47;20030;-70
2021/12/24 08:43:33;;;;;;;22.45;13.55;;;;;;;7.39;80.69;98049.47;2621509;54;20558;-71
2021/12/24 12:06:47;;;;;;;14.02;9.80;;;;;;;7.90;83.79;97919.44;2617223;47;20125;-69
2021/12/24 12:09:17;;;;;;;15.10;11.02;;;;;;;7.90;84.13;97919.44;2618285;54;20099;-68
2021/12/24 12:11:48;;;;;;;17.55;11.18;;;;;;;7.91;83.96;97918.44;2618833;39;20445;-70
2021/12/24 12:14:27;;;;;;;15.05;11.43;;;;;;;7.98;83.95;97923.75;2617887;46;20042;-69
2021/12/24 12:17:00;;;;;;;16.48;11.60;;;;;;;7.99;84.46;97914.81;2618071;47;20035;-67
2021/12/24 12:19:38;;;;;;;14.35;10.93;;;;;;;7.99;84.40;97917.47;2619227;54;20047;-66
2021/12/24 12:22:19;;;;;;;16.77;11.93;;;;;;;7.95;84.58;97911.78;2618870;54;20537;-66
2021/12/24 12:27:39;;;;;;;15.30;11.23;;;;;;;7.89;84.81;97908.13;2619376;54;20573;-66
2021/12/24 12:30:36;;;;;;;18.15;12.43;;;;;;;7.89;84.67;97909.94;2620369;54;20078;-66
2021/12/24 12:33:09;;;;;;;14.63;10.82;;;;;;;7.88;84.89;97901.25;2618712;54;20287;-66
2021/12/24 12:35:48;;;;;;;16.90;12.80;;;;;;;7.93;85.18;97904.09;2618722;54;20033;-66
2021/12/24 12:38:33;;;;;;;14.68;11.18;;;;;;;7.91;84.93;97902.66;2619865;39;20415;-65
2021/12/24 12:41:21;;;;;;;13.20;9.82;;;;;;;7.85;84.99;97892.94;2623478;54;20034;-67
2021/12/24 12:43:52;;;;;;;15.88;11.18;;;;;;;7.91;85.62;97895.56;2625209;54;20415;-66
2021/12/24 12:46:24;;;;;;;13.68;11.20;;;;;;;7.93;85.31;97887.50;2624700;54;20034;-66
2021/12/24 12:48:57;;;;;;;15.18;11.10;;;;;;;7.92;85.20;97884.06;2624801;54;20086;-65
2021/12/24 12:51:57;;;;;;;16.20;12.40;;;;;;;7.94;85.30;97884.66;2624707;54;20046;-66
2021/12/24 12:54:38;;;;;;;16.17;11.60;;;;;;;7.97;85.27;97880.00;2624520;39;20446;-66
2021/12/24 12:57:30;;;;;;;16.45;12.10;;;;;;;7.92;85.71;97875.34;2624504;54;20042;-66
2021/12/24 13:00:34;;;;;;;18.67;11.32;;;;;;;7.87;85.36;97873.28;2623793;54;20022;-65
2021/12/24 13:03:12;;;;;;;16.48;13.02;;;;;;;7.97;85.37;97872.13;2621154;54;20030;-65
2021/12/24 13:06:04;;;;;;;15.00;11.82;;;;;;;7.98;85.70;97871.91;2619921;54;20027;-69
2021/12/24 13:08:37;;;;;;;17.67;12.65;;;;;;;7.93;85.30;97874.31;2618989;54;20034;-69
2021/12/24 13:11:12;;;;;;;17.02;12.38;;;;;;;7.93;85.31;97880.41;2618563;47;20030;-69
2021/12/24 13:13:56;;;;;;;17.30;12.77;;;;;;;7.95;85.64;97874.94;2618719;54;20534;-70
2021/12/24 13:16:33;;;;;;;16.17;13.20;;;;;;;8.03;85.43;97873.94;2619194;46;20031;-70
2021/12/24 13:19:22;;;;;;;17.80;12.63;;;;;;;8.08;85.38;97871.50;2619688;54;20038;-70
2021/12/24 13:24:36;;;;;;;17.85;14.13;;;;;;;8.08;85.40;97867.09;2619558;39;20445;-70
2021/12/24 13:27:08;;;;;;;16.58;11.70;;;;;;;8.07;85.44;97865.44;2618459;51;20531;-71
2021/12/24 13:29:38;;;;;;;16.55;11.73;;;;;;;8.05;85.52;97869.31;2618940;46;20037;-71
2021/12/24 13:32:09;;;;;;;16.42;11.65;;;;;;;8.12;85.47;97867.47;2619090;54;20039;-69
2021/12/24 13:34:39;;;;;;;18.05;12.57;;;;;;;8.19;85.43;97866.47;2618866;47;20034;-69
2021/12/24 13:37:17;;;;;;;14.52;11.88;;;;;;;8.22;85.08;97860.00;2619146;54;20586;-70
2021/12/24 13:39:49;;;;;;;16.25;12.30;;;;;;;8.25;84.98;97857.00;2619788;54;20030;-69
2021/12/24 13:42:22;;;;;;;14.48;11.52;;;;;;;8.30;84.93;97856.38;2618681;47;20030;-69
2021/12/24 13:45:01;;;;;;;16.48;12.32;;;;;;;8.29;84.61;97860.84;2619374;54;20035;-70
2021/12/24 13:47:44;;;;;;;13.63;11.13;;;;;;;8.26;84.60;97858.59;2618938;54;20026;-70
2021/12/24 13:55:40;;;;;;;14.68;13.00;;;;;;;8.33;84.66;97848.91;2619143;54;20034;-70
2021/12/24 13:58:15;;;;;;;13.18;11.55;;;;;;;8.34;84.32;97842.59;2618567;54;20038;-69
2021/12/24 14:00:49;;;;;;;16.17;12.07;;;;;;;8.42;84.75;97841.63;2619607;54;20030;-70
2021/12/24 14:03:25;;;;;;;13.43;11.10;;;;;;;8.43;84.38;97846.69;2618941;54;20042;-70
2021/12/24 14:05:56;;;;;;;14.48;11.15;;;;;;;8.48;84.00;97853.19;2618842;46;20041;-70
2021/12/24 14:08:27;;;;;;;13.18;10.32;;;;;;;8.50;84.31;97851.16;2619251;54;20034;-70
2021/12/24 14:11:07;;;;;;;11.80;10.35;;;;;;;8.49;84.37;97849.53;2619162;54;20046;-70
2021/12/24 14:13:44;;;;;;;12.65;11.18;;;;;;;8.42;84.35;97854.81;2618597;54;20038;-69
2021/12/24 14:16:33;;;;;;;11.82;9.90;;;;;;;8.42;84.09;97855.59;2618532;54;20026;-70
2021/12/24 14:19:14;;;;;;;11.50;8.88;;;;;;;8.42;83.91;97855.59;2619053;54;20039;-69
2021/12/24 14:21:47;;;;;;;10.82;9.55;;;;;;;8.45;84.02;97857.03;2618325;47;20026;-69
2021/12/24 14:24:21;;;;;;;9.68;8.23;;;;;;;8.45;84.07;97859.69;2618304;54;20053;-70
2021/12/24 14:26:56;;;;;;;7.70;6.90;;;;;;;8.40;84.33;97862.88;2619038;54;20025;-69
2021/12/24 14:29:32;;;;;;;8.52;7.25;;;;;;;8.36;84.34;97856.38;2619547;54;20027;-70
2021/12/24 14:32:04;;;;;;;8.20;7.40;;;;;;;8.34;84.44;97861.03;2619004;54;20034;-70
2021/12/24 14:34:37;;;;;;;8.30;7.50;;;;;;;8.33;84.48;97858.63;2619482;54;20034;-70
2021/12/24 14:37:10;;;;;;;6.55;5.88;;;;;;;8.29;84.24;97854.78;2619370;54;20033;-70
2021/12/24 14:39:43;;;;;;;7.97;7.18;;;;;;;8.28;84.22;97851.28;2618944;54;20026;-70
2021/12/24 14:42:22;;;;;;;7.10;6.40;;;;;;;8.33;84.57;97854.16;2619306;54;20059;-69
2021/12/24 14:44:57;;;;;;;8.00;7.00;;;;;;;8.31;84.56;97844.81;2618903;54;20036;-71
2021/12/24 14:47:29;;;;;;;7.35;5.72;;;;;;;8.26;84.22;97842.81;2619277;54;20078;-70
2021/12/24 14:50:07;;;;;;;6.90;6.20;;;;;;;8.21;84.90;97844.44;2619991;39;20445;-71
2021/12/24 14:52:37;;;;;;;6.90;6.13;;;;;;;8.23;84.83;97837.13;2618990;54;20026;-71
2021/12/24 14:55:16;;;;;;;6.60;5.90;;;;;;;8.29;84.90;97839.78;2618781;54;20681;-70
2021/12/24 14:57:54;;;;;;;6.55;5.82;;;;;;;8.32;84.72;97843.81;2618811;54;20039;-70
2021/12/24 15:00:35;;;;;;;6.70;6.00;;;;;;;8.36;84.86;97845.84;2618522;54;20026;-70
2021/12/24 15:03:09;;;;;;;6.32;5.72;;;;;;;8.33;84.56;97845.44;2618010;54;20022;-69
2021/12/24 15:05:41;;;;;;;6.65;5.95;;;;;;;8.35;84.66;97843.41;2617605;54;20554;-70
2021/12/24 15:08:23;;;;;;;6.50;5.90;;;;;;;8.41;84.98;97842.66;2617798;54;20061;-69
2021/12/24 15:11:01;;;;;;;7.38;6.32;;;;;;;8.46;84.93;97839.41;2618645;54;20026;-70
2021/12/24 15:13:31;;;;;;;6.53;5.47;;;;;;;8.48;84.75;97838.19;2618332;54;20023;-70
2021/12/24 15:16:05;;;;;;;7.03;5.13;;;;;;;8.53;84.54;97837.56;2618641;47;20030;-70
2021/12/24 15:18:34;;;;;;;6.60;5.90;;;;;;;8.51;84.42;97832.50;2620416;54;20030;-69
2021/12/24 15:21:05;;;;;;;7.78;5.97;;;;;;;8.52;84.25;97833.31;2620387;54;20033;-70
2021/12/24 15:23:35;;;;;;;5.88;5.28;;;;;;;8.53;84.35;97842.84;2619134;54;20045;-70
2021/12/24 15:26:05;;;;;;;6.10;5.50;;;;;;;8.53;84.21;97837.56;2618940;47;20042;-70
2021/12/24 15:28:34;;;;;;;7.57;5.40;;;;;;;8.55;84.19;97836.34;2618673;54;20055;-71
2021/12/24 15:31:06;;;;;;;7.38;5.70;;;;;;;8.57;84.40;97836.97;2618719;47;20030;-71
2021/12/24 15:33:36;;;;;;;6.18;5.18;;;;;;;8.56;84.17;97830.06;2619534;54;20033;-71
2021/12/24 15:36:08;;;;;;;4.95;4.00;;;;;;;8.52;83.96;97834.13;2619443;39;20431;-71
2021/12/24 15:38:39;;;;;;;4.72;4.25;;;;;;;8.51;84.31;97843.03;2618583;54;20057;-72
2021/12/24 15:41:11;;;;;;;5.95;5.22;;;;;;;8.51;84.16;97831.72;2624599;54;20042;-72
2021/12/24 15:43:42;;;;;;;7.18;6.45;;;;;;;8.56;84.05;97832.72;2622795;49;20074;-71
2021/12/24 15:46:14;;;;;;;4.13;3.67;;;;;;;8.53;83.64;97827.88;2620247;54;20062;-72
2021/12/24 15:48:44;;;;;;;7.28;4.50;;;;;;;8.51;84.05;97831.72;2618675;54;20576;-71
2021/12/24 15:51:14;;;;;;;5.43;4.93;;;;;;;8.52;83.94;97831.50;2618606;54;20058;-70
2021/12/24 15:53:43;;;;;;;5.50;4.85;;;;;;;8.55;83.79;97833.72;2618615;54;20034;-70
2021/12/24 15:56:13;;;;;;;6.88;6.15;;;;;;;8.58;83.70;97832.53;2619501;31;20534;-70
2021/12/24 15:58:43;;;;;;;4.35;3.92;;;;;;;8.55;83.54;97839.00;2618840;54;20050;-71
2021/12/24 16:01:17;;;;;;;4.55;4.03;;;;;;;8.53;83.85;97833.13;2618350;54;20530;-72
2021/12/24 16:03:47;;;;;;;;;;;;;;;8.53;83.85;97825.22;2618304;47;20022;-71
2021/12/24 16:06:18;;;;;;;7.78;4.88;;;;;;;8.53;83.93;97837.56;2619025;54;20438;-72
2021/12/24 16:08:48;;;;;;;5.40;4.68;;;;;;;8.53;83.96;97827.88;2618027;47;20113;-72
2021/12/24 16:11:18;;;;;;;3.85;3.40;;;;;;;8.54;83.46;97823.41;2619656;54;20038;-72
2021/12/24 16:13:47;;;;;;;4.53;3.58;;;;;;;8.46;83.59;97820.97;2623768;54;20034;-71
2021/12/24 16:16:24;;;;;;;4.93;4.10;;;;;;;8.49;83.82;97829.28;2624745;54;20064;-71
2021/12/24 16:18:54;;;;;;;5.80;4.00;;;;;;;8.46;83.71;97826.25;2623891;51;20027;-72
2021/12/24 16:21:23;;;;;;;4.57;3.42;;;;;;;8.46;83.49;97831.50;2624644;54;20026;-70
2021/12/24 16:23:53;;;;;;;3.88;3.40;;;;;;;8.40;83.51;97831.28;2624001;54;20072;-70
2021/12/24 16:26:22;;;;;;;5.10;3.83;;;;;;;8.41;83.70;97835.56;2621997;54;20606;-70
2021/12/24 16:28:53;;;;;;;3.88;3.47;;;;;;;8.38;83.76;97837.78;2620936;54;20084;-70
2021/12/24 16:31:25;;;;;;;6.57;3.63;;;;;;;8.43;83.73;97835.34;2620269;54;20026;-70
2021/12/24 16:33:55;;;;;;;5.28;4.03;;;;;;;8.44;83.98;97837.75;2619287;54;20093;-70
2021/12/24 16:36:25;;;;;;;7.28;4.43;;;;;;;8.40;83.85;97835.75;2620145;54;20031;-70
2021/12/24 16:38:54;;;;;;;8.85;6.15;;;;;;;8.38;84.24;97832.50;2620110;54;20026;-70
2021/12/24 16:41:24;;;;;;;7.00;5.88;;;;;;;8.43;84.16;97824.81;2620682;54;20091;-70
2021/12/24 16:43:54;;;;;;;7.97;6.03;;;;;;;8.44;84.01;97832.50;2620193;47;20035;-71
2021/12/24 16:46:26;;;;;;;7.10;5.90;;;;;;;8.47;84.10;97823.41;2620579;54;20030;-71
2021/12/24 16:48:59;;;;;;;9.30;6.03;;;;;;;8.49;83.75;97836.34;2623112;54;20027;-71